Flight Track Log - Related Links

Times and Time Zones

All times are in EDT time to prevent confusion due to time zone crossing. See the CUA5905 flight status page for this flight to view local times or setup timezone preferences in your user account.

Time Position Orientation Groundspeed Altitude Reporting Facility
EDT Latitude Longitude Course Direction KTS MPH feet Rate Location/Type
Tue 12:54:00 AM 39.0275 116.7692 158° South  Level Estimated
Tue 12:55:00 AM 38.9439 116.8112 159° South  Level Estimated
Tue 12:56:00 AM 38.8603 116.8532 159° South  Level Estimated
Tue 12:57:00 AM 38.7766 116.8950 159° South  Level Estimated
Tue 12:58:00 AM 38.6930 116.9367 159° South  Level Estimated
Tue 12:59:00 AM 38.6093 116.9784 159° South  Level Estimated
Tue 01:00:00 AM 38.5256 117.0199 159° South  Level Estimated
Tue 01:01:00 AM 38.4419 117.0613 159° South  Level Estimated
Tue 01:02:00 AM 38.3581 117.1027 159° South  Level Estimated
Tue 01:03:00 AM 38.2744 117.1439 159° South  Level Estimated
Tue 01:04:00 AM 38.1906 117.1851 159° South  Level Estimated
Tue 01:05:00 AM 38.1069 117.2262 159° South  Level Estimated
Tue 01:06:00 AM 38.0231 117.2671 159° South  Level Estimated
Tue 01:07:00 AM 37.9393 117.3080 159° South  Level Estimated
Tue 01:08:00 AM 37.8555 117.3488 159° South  Level Estimated
Tue 01:09:00 AM 37.7716 117.3895 159° South  Level Estimated
Tue 01:10:00 AM 37.6878 117.4301 159° South  Level Estimated
Tue 01:11:00 AM 37.6040 117.4706 159° South  Level Estimated
Tue 01:12:00 AM 37.5201 117.5110 159° South  Level Estimated
Tue 01:13:00 AM 37.4362 117.5513 159° South  Level Estimated
Tue 01:14:00 AM 37.3523 117.5915 159° South  Level Estimated
Tue 01:15:00 AM 37.2684 117.6317 159° South  Level Estimated
Tue 01:16:00 AM 37.1845 117.6717 159° South  Level Estimated
Tue 01:17:00 AM 37.1006 117.7117 159° South  Level Estimated
Tue 01:18:00 AM 37.0166 117.7516 159° South  Level Estimated
Tue 01:19:00 AM 36.9326 117.7914 159° South  Level Estimated
Tue 01:20:00 AM 36.8487 117.8311 159° South  Level Estimated
Tue 01:21:00 AM 36.7647 117.8707 159° South  Level Estimated
Tue 01:22:00 AM 36.6807 117.9102 159° South  Level Estimated
Tue 01:23:00 AM 36.5967 117.9496 159° South  Level Estimated
Tue 01:24:00 AM 36.5126 117.9890 159° South  Level Estimated
Tue 01:25:00 AM 36.4286 118.0283 159° South  Level Estimated
Tue 01:26:00 AM 36.3445 118.0675 159° South  Level Estimated
Tue 01:27:00 AM 36.2605 118.1066 159° South  Level Estimated
Tue 01:28:00 AM 36.1764 118.1456 159° South  Level Estimated
Tue 01:29:00 AM 36.0923 118.1845 159° South  Level Estimated
Tue 01:30:00 AM 36.0082 118.2233 160° South  Level Estimated
Tue 01:31:00 AM 35.9241 118.2621 160° South  Level Estimated
Tue 01:32:00 AM 35.8400 118.3008 160° South  Level Estimated
Tue 01:33:00 AM 35.7558 118.3394 160° South  Level Estimated
Tue 01:34:00 AM 35.6717 118.3779 160° South  Level Estimated
Tue 01:35:00 AM 35.5949 118.4130 160° South  Level Estimated
Tue 01:36:00 AM 35.5182 118.4480 160° South  Level Estimated
Tue 01:37:00 AM 35.4414 118.4829 160° South  Level Estimated
Tue 01:38:00 AM 35.3646 118.5177 160° South  Level Estimated
Tue 01:39:00 AM 35.2879 118.5525 160° South  Level Estimated
Tue 01:40:00 AM 35.2111 118.5872 160° South  Level Estimated
Tue 01:41:00 AM 35.1343 118.6219 160° South  Level Estimated
Tue 01:42:00 AM 35.0575 118.6564 160° South  Level Estimated
Tue 01:43:00 AM 34.9807 118.6910 160° South  Level Estimated
Tue 01:44:00 AM 34.9038 118.7254 160° South  Level Estimated
Tue 01:45:00 AM 34.8270 118.7598 160° South  Level Estimated
Tue 01:46:00 AM 34.7501 118.7942 160° South  Level Estimated
Tue 01:47:00 AM 34.6733 118.8284 160° South  Level Estimated
Tue 01:48:00 AM 34.5964 118.8626 160° South  Level Estimated
Tue 01:49:00 AM 34.5717 118.8736 160° South  Level Estimated
Tue 01:50:00 AM 34.5717 118.8736 North  Level Estimated
Tue 01:51:00 AM 34.5717 118.8736 North  Level Estimated
Tue 01:52:00 AM 34.5717 118.8736 North  Level Estimated
Tue 01:53:00 AM 34.5717 118.8736 North  Level Estimated
Tue 01:54:00 AM 34.5717 118.8736 North  Level Estimated
Tue 01:55:00 AM 34.5717 118.8736 North  Level Estimated
Tue 01:56:00 AM 34.5717 118.8736 North  Level Estimated
Tue 01:57:00 AM 34.5717 118.8736 North  Level Estimated

Login

Don't have an account? Register now (free) for customized features, flight alerts, and more!